Time;durP1;ratioP1;P1;durP2;ratioP2;P2;SDS_P1;SDS_P2;PMS_P1;PMS_P2;Temp;Humidity;BMP_temperature;BMP_pressure;BME280_temperature;BME280_humidity;BME280_pressure;Samples;Min_cycle;Max_cycle;Signal;HPM_P1;HPM_P2
2022/11/26 00:00:41;;;;;;;1.30;1.20;;;;;;;;;;1837431;77;26354;-60
2022/11/26 00:03:09;;;;;;;2.33;1.32;;;;;;;;;;1827188;76;26773;-60
2022/11/26 00:05:37;;;;;;;1.67;1.30;;;;;;;;;;1832642;76;26315;-60
2022/11/26 00:08:04;;;;;;;1.22;1.10;;;;;;;;;;1821125;77;27084;-60
2022/11/26 00:10:33;;;;;;;1.27;1.15;;;;;;;;;;1832853;76;26263;-60
2022/11/26 00:13:00;;;;;;;1.40;1.10;;;;;;;;;;1824027;77;26292;-60
2022/11/26 00:15:29;;;;;;;1.52;1.27;;;;;;;;;;1840519;77;27058;-60
2022/11/26 00:17:56;;;;;;;1.10;1.10;;;;;;;;;;1835908;76;26736;-60
2022/11/26 00:20:25;;;;;;;1.10;1.10;;;;;;;;;;1836477;76;26276;-60
2022/11/26 00:22:53;;;;;;;0.90;0.90;;;;;;;;;;1839440;76;26296;-60
2022/11/26 00:25:22;;;;;;;1.80;1.20;;;;;;;;;;1839393;77;26825;-60
2022/11/26 00:27:50;;;;;;;0.93;0.90;;;;;;;;;;1837679;77;26849;-60
2022/11/26 00:30:22;;;;;;;0.95;0.95;;;;;;;;;;1837592;76;26284;-60
2022/11/26 00:32:49;;;;;;;1.95;1.20;;;;;;;;;;1849753;76;26768;-60
2022/11/26 00:35:17;;;;;;;1.10;1.10;;;;;;;;;;1851865;76;26312;-59
2022/11/26 00:37:46;;;;;;;0.95;0.95;;;;;;;;;;1852883;76;26255;-60
2022/11/26 00:40:18;;;;;;;0.90;0.90;;;;;;;;;;1850043;76;26323;-59
2022/11/26 00:42:45;;;;;;;0.90;0.90;;;;;;;;;;1844650;76;26270;-59
2022/11/26 00:45:22;;;;;;;1.75;1.00;;;;;;;;;;1852036;76;26245;-59
2022/11/26 00:47:50;;;;;;;1.10;1.00;;;;;;;;;;1850017;76;26256;-60
2022/11/26 00:50:19;;;;;;;0.90;0.90;;;;;;;;;;1849273;76;26829;-60
2022/11/26 00:52:48;;;;;;;1.12;1.00;;;;;;;;;;1849772;76;26898;-60
2022/11/26 00:55:16;;;;;;;0.85;0.85;;;;;;;;;;1851626;76;26293;-59
2022/11/26 00:57:44;;;;;;;0.90;0.90;;;;;;;;;;1847566;76;26252;-60
2022/11/26 01:00:15;;;;;;;2.12;0.98;;;;;;;;;;1854076;76;27050;-60
2022/11/26 01:02:43;;;;;;;0.95;0.95;;;;;;;;;;1851733;76;26754;-60
2022/11/26 01:05:10;;;;;;;0.80;0.80;;;;;;;;;;1843293;76;26793;-61
2022/11/26 01:07:37;;;;;;;0.90;0.90;;;;;;;;;;1852024;76;26286;-60
2022/11/26 01:10:05;;;;;;;1.10;1.10;;;;;;;;;;1850341;76;26341;-61
2022/11/26 01:12:33;;;;;;;1.27;0.93;;;;;;;;;;1851881;76;26284;-60
2022/11/26 01:15:00;;;;;;;0.82;0.82;;;;;;;;;;1851754;76;26797;-60
2022/11/26 01:17:27;;;;;;;1.02;0.90;;;;;;;;;;1851872;76;26772;-60
2022/11/26 01:19:54;;;;;;;0.93;0.93;;;;;;;;;;1852098;76;26296;-60
2022/11/26 01:22:23;;;;;;;0.80;0.80;;;;;;;;;;1853500;76;26254;-61
2022/11/26 01:24:50;;;;;;;0.80;0.80;;;;;;;;;;1855614;76;26248;-61
2022/11/26 01:27:19;;;;;;;0.93;0.93;;;;;;;;;;1860702;76;26284;-60
2022/11/26 01:29:47;;;;;;;0.90;0.90;;;;;;;;;;1849856;76;26301;-60
2022/11/26 01:32:14;;;;;;;0.90;0.90;;;;;;;;;;1834969;76;26405;-60
2022/11/26 01:34:41;;;;;;;0.80;0.80;;;;;;;;;;1845875;76;26282;-60
2022/11/26 01:37:13;;;;;;;0.80;0.80;;;;;;;;;;1841736;77;26251;-60
2022/11/26 01:39:40;;;;;;;0.80;0.80;;;;;;;;;;1833320;77;26295;-60
2022/11/26 01:42:21;;;;;;;0.80;0.80;;;;;;;;;;1840322;76;26780;-60
2022/11/26 01:44:48;;;;;;;0.80;0.80;;;;;;;;;;1834229;76;26244;-60
2022/11/26 01:47:20;;;;;;;0.60;0.60;;;;;;;;;;1851068;77;26252;-60
2022/11/26 01:50:06;;;;;;;0.90;0.90;;;;;;;;;;1840741;76;26285;-60
2022/11/26 01:52:33;;;;;;;0.60;0.60;;;;;;;;;;1841778;77;26284;-61
2022/11/26 01:55:00;;;;;;;0.80;0.80;;;;;;;;;;1844146;77;26290;-61
2022/11/26 01:57:29;;;;;;;0.70;0.70;;;;;;;;;;1821553;76;26252;-60
2022/11/26 02:00:00;;;;;;;0.90;0.90;;;;;;;;;;1845820;77;26262;-61
2022/11/26 02:02:28;;;;;;;0.75;0.75;;;;;;;;;;1844153;76;26350;-60
2022/11/26 02:05:09;;;;;;;0.72;0.72;;;;;;;;;;1845781;77;26258;-60
2022/11/26 02:07:36;;;;;;;0.72;0.72;;;;;;;;;;1836677;77;26338;-60
2022/11/26 02:10:04;;;;;;;0.78;0.78;;;;;;;;;;1848318;77;26864;-61
2022/11/26 02:12:32;;;;;;;0.80;0.80;;;;;;;;;;1850344;77;26253;-61
2022/11/26 02:14:59;;;;;;;0.82;0.82;;;;;;;;;;1845310;77;26786;-61
2022/11/26 02:17:31;;;;;;;0.70;0.70;;;;;;;;;;1846109;76;26338;-61
2022/11/26 02:20:12;;;;;;;0.80;0.80;;;;;;;;;;1839399;77;26400;-60
2022/11/26 02:22:43;;;;;;;0.72;0.72;;;;;;;;;;1844856;76;26256;-61
2022/11/26 02:25:15;;;;;;;0.80;0.80;;;;;;;;;;1844126;76;26265;-61
2022/11/26 02:27:50;;;;;;;0.60;0.60;;;;;;;;;;1846424;77;26767;-61
2022/11/26 02:30:18;;;;;;;0.70;0.70;;;;;;;;;;1827441;77;26709;-60
2022/11/26 02:32:57;;;;;;;0.80;0.80;;;;;;;;;;1846944;76;26423;-59
2022/11/26 02:35:26;;;;;;;0.60;0.60;;;;;;;;;;1852738;76;26759;-61
2022/11/26 02:37:58;;;;;;;0.78;0.78;;;;;;;;;;1847201;76;26724;-61
2022/11/26 02:40:26;;;;;;;0.65;0.65;;;;;;;;;;1843575;76;26708;-60
2022/11/26 02:42:53;;;;;;;0.75;0.75;;;;;;;;;;1815641;77;26333;-60
2022/11/26 02:45:22;;;;;;;0.60;0.60;;;;;;;;;;1796211;79;26865;-61
2022/11/26 02:47:51;;;;;;;0.62;0.62;;;;;;;;;;1784351;79;26773;-61
2022/11/26 02:50:23;;;;;;;0.75;0.75;;;;;;;;;;1817842;77;26578;-60
2022/11/26 02:52:51;;;;;;;0.68;0.68;;;;;;;;;;1809719;79;26402;-61
2022/11/26 02:55:20;;;;;;;0.80;0.80;;;;;;;;;;1809632;79;26825;-61
2022/11/26 02:57:49;;;;;;;0.70;0.70;;;;;;;;;;1797504;77;26810;-61
2022/11/26 03:00:17;;;;;;;2.47;0.70;;;;;;;;;;1821208;77;26287;-60
2022/11/26 03:02:48;;;;;;;0.70;0.70;;;;;;;;;;1794220;78;26286;-60
2022/11/26 03:05:17;;;;;;;0.80;0.80;;;;;;;;;;1808262;79;26338;-60
2022/11/26 03:07:46;;;;;;;0.70;0.70;;;;;;;;;;1809721;79;26295;-60
2022/11/26 03:10:13;;;;;;;0.80;0.80;;;;;;;;;;1797682;79;26362;-63
2022/11/26 03:12:40;;;;;;;0.85;0.85;;;;;;;;;;1797989;79;26889;-61
2022/11/26 03:15:08;;;;;;;0.90;0.90;;;;;;;;;;1814146;79;26358;-60
2022/11/26 03:17:35;;;;;;;0.70;0.70;;;;;;;;;;1810648;79;26373;-60
2022/11/26 03:20:03;;;;;;;0.68;0.68;;;;;;;;;;1809558;79;26387;-60
2022/11/26 03:22:30;;;;;;;0.90;0.90;;;;;;;;;;1806217;79;26298;-60
2022/11/26 03:24:57;;;;;;;0.80;0.80;;;;;;;;;;1797120;79;26343;-61
2022/11/26 03:27:24;;;;;;;0.60;0.60;;;;;;;;;;1809902;79;26433;-61
2022/11/26 03:29:52;;;;;;;0.68;0.68;;;;;;;;;;1814049;78;26272;-61
2022/11/26 03:32:19;;;;;;;0.70;0.70;;;;;;;;;;1809639;79;26283;-61
2022/11/26 03:34:46;;;;;;;0.70;0.70;;;;;;;;;;1800240;79;26279;-61
2022/11/26 03:37:14;;;;;;;0.80;0.80;;;;;;;;;;1791280;79;26971;-61
2022/11/26 03:39:41;;;;;;;0.70;0.70;;;;;;;;;;1806980;79;26328;-60
2022/11/26 03:42:08;;;;;;;0.70;0.70;;;;;;;;;;1812180;78;26279;-60
2022/11/26 03:44:36;;;;;;;0.70;0.70;;;;;;;;;;1804383;79;26370;-61
2022/11/26 03:47:03;;;;;;;0.70;0.70;;;;;;;;;;1795343;79;26373;-60
2022/11/26 03:49:30;;;;;;;0.70;0.70;;;;;;;;;;1801494;79;26283;-61
2022/11/26 03:51:58;;;;;;;0.70;0.70;;;;;;;;;;1804249;79;26787;-61
2022/11/26 03:54:25;;;;;;;0.70;0.70;;;;;;;;;;1804333;79;26811;-61
2022/11/26 03:56:52;;;;;;;0.70;0.70;;;;;;;;;;1804509;79;26271;-60
2022/11/26 03:59:19;;;;;;;0.70;0.70;;;;;;;;;;1799743;79;26373;-60
2022/11/26 04:01:47;;;;;;;0.80;0.80;;;;;;;;;;1803915;79;26287;-60
2022/11/26 04:04:14;;;;;;;0.70;0.70;;;;;;;;;;1804698;79;26287;-59
2022/11/26 04:06:41;;;;;;;0.80;0.80;;;;;;;;;;1804896;79;26278;-59
2022/11/26 04:09:08;;;;;;;0.70;0.70;;;;;;;;;;1804865;79;26282;-59
2022/11/26 04:11:36;;;;;;;0.60;0.60;;;;;;;;;;1794249;79;26766;-59
2022/11/26 04:14:03;;;;;;;0.60;0.60;;;;;;;;;;1796244;79;26293;-60
2022/11/26 04:16:30;;;;;;;0.70;0.70;;;;;;;;;;1799487;79;26372;-59
2022/11/26 04:18:58;;;;;;;0.68;0.68;;;;;;;;;;1789098;79;26303;-59
2022/11/26 04:21:25;;;;;;;0.80;0.80;;;;;;;;;;1804426;79;26407;-59
2022/11/26 04:23:52;;;;;;;0.60;0.60;;;;;;;;;;1804110;79;26722;-60
2022/11/26 04:26:19;;;;;;;0.80;0.80;;;;;;;;;;1804677;79;26326;-59
2022/11/26 04:28:49;;;;;;;0.65;0.65;;;;;;;;;;1804035;79;26292;-59
2022/11/26 04:31:17;;;;;;;0.80;0.80;;;;;;;;;;1804407;79;26732;-59
2022/11/26 04:33:44;;;;;;;0.60;0.60;;;;;;;;;;1789662;79;26319;-59
2022/11/26 04:36:11;;;;;;;0.62;0.62;;;;;;;;;;1797588;79;26308;-60
2022/11/26 04:38:39;;;;;;;0.80;0.80;;;;;;;;;;1820590;79;26270;-59
2022/11/26 04:41:06;;;;;;;0.70;0.70;;;;;;;;;;1809247;79;26263;-59
2022/11/26 04:43:33;;;;;;;0.70;0.70;;;;;;;;;;1813658;79;26346;-59
2022/11/26 04:46:01;;;;;;;0.50;0.50;;;;;;;;;;1801056;79;26732;-60
2022/11/26 04:48:28;;;;;;;0.78;0.78;;;;;;;;;;1804347;79;26279;-60
2022/11/26 04:50:55;;;;;;;0.60;0.60;;;;;;;;;;1803911;79;26291;-59
2022/11/26 04:53:23;;;;;;;0.65;0.65;;;;;;;;;;1812892;79;26207;-60
2022/11/26 04:55:51;;;;;;;0.60;0.60;;;;;;;;;;1805637;79;26360;-59
2022/11/26 05:01:08;;;;;;;0.70;0.70;;;;;;;;;;1839043;78;26316;-60
2022/11/26 05:03:35;;;;;;;0.70;0.70;;;;;;;;;;1811278;78;26288;-60
2022/11/26 05:06:03;;;;;;;0.60;0.60;;;;;;;;;;1821229;78;26319;-60
2022/11/26 05:08:30;;;;;;;0.68;0.68;;;;;;;;;;1831559;78;26264;-59
2022/11/26 05:11:00;;;;;;;0.60;0.60;;;;;;;;;;1813882;78;26296;-61
2022/11/26 05:13:27;;;;;;;0.70;0.70;;;;;;;;;;1839710;76;26770;-60
2022/11/26 05:15:54;;;;;;;0.60;0.60;;;;;;;;;;1838439;76;27262;-62
2022/11/26 05:18:22;;;;;;;0.57;0.57;;;;;;;;;;1827265;78;26260;-60
2022/11/26 05:20:49;;;;;;;0.62;0.62;;;;;;;;;;1832922;76;26277;-61
2022/11/26 05:23:16;;;;;;;0.70;0.70;;;;;;;;;;1845684;76;26248;-61
2022/11/26 05:25:43;;;;;;;0.70;0.70;;;;;;;;;;1843079;76;26827;-61
2022/11/26 05:28:11;;;;;;;0.70;0.70;;;;;;;;;;1829581;76;26357;-61
2022/11/26 05:30:38;;;;;;;0.60;0.60;;;;;;;;;;1832500;76;26330;-61
2022/11/26 05:33:05;;;;;;;0.70;0.70;;;;;;;;;;1827744;76;26287;-61
2022/11/26 05:35:33;;;;;;;0.50;0.50;;;;;;;;;;1822534;77;26289;-60
2022/11/26 05:38:00;;;;;;;0.60;0.60;;;;;;;;;;1827289;77;26284;-61
2022/11/26 05:40:43;;;;;;;;;;;;;;;;;;;;;
2022/11/26 05:43:12;;;;;;;0.70;0.70;;;;;;;;;;1872811;76;26306;-62
2022/11/26 05:45:39;;;;;;;0.70;0.70;;;;;;;;;;1874886;76;26339;-61
2022/11/26 05:48:06;;;;;;;0.80;0.80;;;;;;;;;;1874848;76;26281;-60
2022/11/26 05:50:33;;;;;;;0.53;0.53;;;;;;;;;;1858675;76;26741;-62
2022/11/26 05:53:01;;;;;;;0.57;0.57;;;;;;;;;;1881814;76;26719;-61
2022/11/26 05:55:28;;;;;;;0.50;0.50;;;;;;;;;;1884074;76;26258;-61
2022/11/26 05:57:55;;;;;;;0.60;0.60;;;;;;;;;;1885315;76;26336;-60
2022/11/26 06:00:23;;;;;;;0.60;0.60;;;;;;;;;;1870002;76;26815;-61
2022/11/26 06:02:50;;;;;;;0.75;0.75;;;;;;;;;;1879117;76;26292;-61
2022/11/26 06:05:17;;;;;;;0.70;0.70;;;;;;;;;;1875543;76;26314;-60
2022/11/26 06:07:45;;;;;;;0.60;0.60;;;;;;;;;;1881213;76;26923;-61
2022/11/26 06:10:13;;;;;;;0.80;0.80;;;;;;;;;;1866029;76;26230;-61
2022/11/26 06:12:40;;;;;;;0.70;0.70;;;;;;;;;;1857601;76;26273;-61
2022/11/26 06:15:08;;;;;;;0.65;0.65;;;;;;;;;;1883955;76;26604;-62
2022/11/26 06:17:35;;;;;;;0.70;0.70;;;;;;;;;;1875367;76;26352;-61
2022/11/26 06:20:02;;;;;;;0.68;0.68;;;;;;;;;;1866577;76;26285;-61
2022/11/26 06:22:30;;;;;;;0.70;0.70;;;;;;;;;;1881250;74;26271;-60
2022/11/26 06:24:57;;;;;;;0.62;0.62;;;;;;;;;;1886817;76;26724;-60
2022/11/26 06:27:24;;;;;;;0.70;0.70;;;;;;;;;;1887035;76;26755;-60
2022/11/26 06:29:51;;;;;;;0.72;0.72;;;;;;;;;;1875794;76;27181;-60
2022/11/26 06:32:19;;;;;;;0.80;0.80;;;;;;;;;;1887027;76;26895;-59
2022/11/26 06:34:46;;;;;;;0.60;0.60;;;;;;;;;;1885520;76;26306;-60
2022/11/26 06:37:13;;;;;;;0.70;0.70;;;;;;;;;;1868321;76;26355;-60
2022/11/26 06:39:41;;;;;;;0.70;0.70;;;;;;;;;;1884724;76;26692;-59
2022/11/26 06:42:08;;;;;;;0.72;0.72;;;;;;;;;;1857107;76;26913;-60
2022/11/26 06:44:35;;;;;;;0.80;0.80;;;;;;;;;;1854926;77;26256;-60
2022/11/26 06:47:03;;;;;;;0.80;0.80;;;;;;;;;;1859414;77;26267;-60
2022/11/26 06:49:30;;;;;;;0.80;0.80;;;;;;;;;;1858499;77;26341;-60
2022/11/26 06:51:57;;;;;;;0.88;0.88;;;;;;;;;;1857092;77;26259;-59
2022/11/26 06:54:24;;;;;;;0.93;0.85;;;;;;;;;;1837876;77;26394;-60
2022/11/26 06:56:52;;;;;;;0.78;0.78;;;;;;;;;;1858461;77;26661;-59
2022/11/26 06:59:19;;;;;;;0.70;0.70;;;;;;;;;;1843145;77;26604;-59
2022/11/26 07:01:46;;;;;;;2.02;0.88;;;;;;;;;;1852893;77;26285;-60
2022/11/26 07:04:14;;;;;;;1.87;0.80;;;;;;;;;;1852987;77;26326;-60
2022/11/26 07:06:41;;;;;;;0.70;0.70;;;;;;;;;;1849730;76;26256;-60
2022/11/26 07:09:09;;;;;;;0.80;0.80;;;;;;;;;;1860990;76;26261;-60
2022/11/26 07:11:37;;;;;;;2.30;0.80;;;;;;;;;;1857222;77;26373;-60
2022/11/26 07:14:05;;;;;;;0.80;0.80;;;;;;;;;;1855742;77;26524;-61
2022/11/26 07:16:33;;;;;;;0.80;0.80;;;;;;;;;;1844666;77;26346;-61
2022/11/26 07:19:00;;;;;;;0.80;0.80;;;;;;;;;;1858448;77;26283;-60
2022/11/26 07:21:28;;;;;;;1.17;1.05;;;;;;;;;;1858633;77;26749;-59
2022/11/26 07:23:56;;;;;;;1.45;0.80;;;;;;;;;;1828074;77;26275;-60
2022/11/26 07:26:23;;;;;;;1.37;0.80;;;;;;;;;;1830626;77;26895;-58
2022/11/26 07:31:44;;;;;;;0.90;0.90;;;;;;;;;;1855023;76;26319;-58
2022/11/26 07:34:11;;;;;;;1.42;0.85;;;;;;;;;;1866374;75;26322;-58
2022/11/26 07:36:42;;;;;;;2.08;1.00;;;;;;;;;;1861619;76;26258;-59
2022/11/26 07:39:09;;;;;;;0.95;0.95;;;;;;;;;;1857404;75;26264;-59
2022/11/26 07:41:37;;;;;;;1.98;0.80;;;;;;;;;;1858574;75;26279;-59
2022/11/26 07:44:04;;;;;;;1.67;0.90;;;;;;;;;;1859995;75;26299;-59
2022/11/26 07:46:31;;;;;;;1.00;0.95;;;;;;;;;;1853661;75;26344;-59
2022/11/26 07:48:58;;;;;;;2.92;0.90;;;;;;;;;;1869370;75;26790;-59
2022/11/26 07:51:27;;;;;;;0.80;0.80;;;;;;;;;;1855844;75;26254;-59
2022/11/26 07:53:56;;;;;;;1.92;1.10;;;;;;;;;;1840253;75;26610;-59
2022/11/26 07:56:24;;;;;;;1.00;1.00;;;;;;;;;;1855182;76;27472;-59
2022/11/26 07:58:52;;;;;;;3.12;1.00;;;;;;;;;;1868473;75;26384;-59
2022/11/26 08:01:20;;;;;;;1.80;0.90;;;;;;;;;;1868706;76;26537;-61
2022/11/26 08:03:48;;;;;;;1.07;0.98;;;;;;;;;;1851907;75;26271;-61
2022/11/26 08:06:16;;;;;;;1.20;1.15;;;;;;;;;;1843148;76;26211;-61
2022/11/26 08:08:44;;;;;;;1.30;1.00;;;;;;;;;;1859943;75;26287;-61
2022/11/26 08:11:13;;;;;;;0.90;0.90;;;;;;;;;;1853042;76;26337;-61
2022/11/26 08:13:41;;;;;;;2.50;1.00;;;;;;;;;;1866800;75;26302;-61
2022/11/26 08:16:08;;;;;;;1.15;1.00;;;;;;;;;;1857700;75;26337;-63
2022/11/26 08:18:35;;;;;;;1.92;1.10;;;;;;;;;;1857969;75;26287;-59
2022/11/26 08:21:03;;;;;;;1.00;1.00;;;;;;;;;;1854273;76;26735;-61
2022/11/26 08:23:31;;;;;;;1.07;1.00;;;;;;;;;;1843068;75;26255;-61
2022/11/26 08:25:58;;;;;;;1.42;1.42;;;;;;;;;;1880629;75;26268;-59
2022/11/26 08:28:25;;;;;;;2.45;1.98;;;;;;;;;;1870414;75;26274;-61
2022/11/26 08:30:54;;;;;;;4.95;2.50;;;;;;;;;;1877556;75;26376;-60
2022/11/26 08:33:21;;;;;;;5.47;3.40;;;;;;;;;;1853910;75;26282;-59
2022/11/26 08:35:49;;;;;;;5.95;3.65;;;;;;;;;;1860822;75;26317;-63
2022/11/26 08:38:16;;;;;;;11.75;3.77;;;;;;;;;;1869896;75;26333;-61
2022/11/26 08:40:43;;;;;;;6.37;3.90;;;;;;;;;;1869683;76;26267;-62
2022/11/26 08:43:10;;;;;;;9.65;3.75;;;;;;;;;;1870345;75;26356;-62
2022/11/26 08:45:38;;;;;;;7.37;3.90;;;;;;;;;;1863255;76;26271;-61
2022/11/26 08:48:05;;;;;;;6.62;3.85;;;;;;;;;;1867796;75;26255;-61
2022/11/26 08:50:33;;;;;;;6.00;3.67;;;;;;;;;;1890392;75;26737;-60
2022/11/26 08:53:00;;;;;;;6.33;3.67;;;;;;;;;;1850779;76;26329;-62
2022/11/26 08:55:27;;;;;;;5.20;3.60;;;;;;;;;;1857120;75;26361;-59
2022/11/26 08:57:55;;;;;;;4.65;3.42;;;;;;;;;;1854954;75;26287;-61
2022/11/26 09:00:22;;;;;;;4.80;3.45;;;;;;;;;;1863085;75;26263;-62
2022/11/26 09:02:49;;;;;;;3.87;3.10;;;;;;;;;;1860565;75;27202;-61
2022/11/26 09:05:16;;;;;;;5.22;3.27;;;;;;;;;;1878372;75;26259;-61
2022/11/26 09:07:44;;;;;;;6.65;3.30;;;;;;;;;;1857628;76;26329;-60
2022/11/26 09:10:11;;;;;;;4.42;2.85;;;;;;;;;;1869474;75;26255;-62
2022/11/26 09:12:39;;;;;;;5.70;2.80;;;;;;;;;;1858104;76;26372;-61
2022/11/26 09:15:06;;;;;;;3.85;2.87;;;;;;;;;;1874338;75;26263;-62
2022/11/26 09:17:34;;;;;;;2.58;2.37;;;;;;;;;;1839861;76;26266;-61
2022/11/26 09:20:01;;;;;;;3.30;2.47;;;;;;;;;;1848639;75;26972;-61
2022/11/26 09:22:29;;;;;;;2.50;2.30;;;;;;;;;;1863589;76;26276;-61
2022/11/26 09:24:56;;;;;;;2.60;2.40;;;;;;;;;;1850247;75;26278;-61
2022/11/26 09:27:24;;;;;;;2.55;2.10;;;;;;;;;;1856844;76;26298;-62
2022/11/26 09:29:51;;;;;;;2.05;1.90;;;;;;;;;;1850395;76;26313;-61
2022/11/26 09:32:19;;;;;;;2.00;1.90;;;;;;;;;;1871414;74;26387;-61
2022/11/26 09:34:46;;;;;;;2.95;2.20;;;;;;;;;;1889080;75;26593;-60
2022/11/26 09:37:13;;;;;;;1.75;1.65;;;;;;;;;;1877532;74;26350;-61
2022/11/26 09:39:41;;;;;;;1.80;1.70;;;;;;;;;;1876516;74;26265;-61
2022/11/26 09:42:09;;;;;;;1.87;1.77;;;;;;;;;;1861241;75;26269;-61
2022/11/26 09:44:38;;;;;;;1.40;1.40;;;;;;;;;;1876403;75;26266;-60
2022/11/26 09:47:10;;;;;;;1.60;1.50;;;;;;;;;;1908191;74;26330;-60
2022/11/26 09:49:50;;;;;;;1.57;1.40;;;;;;;;;;1870046;74;26321;-61
2022/11/26 09:52:18;;;;;;;1.47;1.37;;;;;;;;;;1888412;75;26344;-60
2022/11/26 09:54:47;;;;;;;1.30;1.30;;;;;;;;;;1889445;75;26739;-60
2022/11/26 09:57:19;;;;;;;1.35;1.30;;;;;;;;;;1871501;74;27391;-60
2022/11/26 09:59:47;;;;;;;1.32;1.25;;;;;;;;;;1874293;76;26944;-60
2022/11/26 10:02:14;;;;;;;1.15;1.15;;;;;;;;;;1882029;74;26577;-60
2022/11/26 10:04:41;;;;;;;1.30;1.30;;;;;;;;;;1886428;75;26255;-60
2022/11/26 10:07:19;;;;;;;1.22;1.22;;;;;;;;;;1887739;76;27022;-60
2022/11/26 10:10:00;;;;;;;1.32;1.22;;;;;;;;;;1887177;76;26278;-59
2022/11/26 10:15:18;;;;;;;1.00;1.00;;;;;;;;;;1909897;74;26855;-59
2022/11/26 10:17:47;;;;;;;1.00;1.00;;;;;;;;;;1917261;74;26259;-59
2022/11/26 10:20:16;;;;;;;1.47;1.37;;;;;;;;;;1890032;74;26341;-60
2022/11/26 10:22:45;;;;;;;1.20;1.20;;;;;;;;;;1903140;74;26339;-59
2022/11/26 10:25:20;;;;;;;0.90;0.90;;;;;;;;;;1914197;74;26267;-59
2022/11/26 10:27:48;;;;;;;1.10;1.10;;;;;;;;;;1902400;74;27144;-58
2022/11/26 10:30:17;;;;;;;1.70;1.10;;;;;;;;;;1920013;74;26763;-60
2022/11/26 10:32:48;;;;;;;1.00;1.00;;;;;;;;;;1913900;74;26291;-60
2022/11/26 10:35:20;;;;;;;1.00;1.00;;;;;;;;;;1849084;74;26648;-59
2022/11/26 10:37:48;;;;;;;1.37;1.27;;;;;;;;;;1841371;77;26298;-61
2022/11/26 10:40:20;;;;;;;1.27;1.17;;;;;;;;;;1819433;77;27517;-61
2022/11/26 10:42:49;;;;;;;1.20;1.20;;;;;;;;;;1842753;77;26925;-61
2022/11/26 10:45:21;;;;;;;0.95;0.95;;;;;;;;;;1843018;77;26745;-63
2022/11/26 10:47:48;;;;;;;1.00;1.00;;;;;;;;;;1847772;77;26396;-60
2022/11/26 10:50:26;;;;;;;1.12;1.12;;;;;;;;;;1838807;77;26331;-61
2022/11/26 10:52:53;;;;;;;1.10;1.10;;;;;;;;;;1843561;77;26353;-61
2022/11/26 10:55:22;;;;;;;1.10;1.10;;;;;;;;;;1836636;77;26386;-60
2022/11/26 10:58:04;;;;;;;1.00;1.00;;;;;;;;;;1836440;77;26307;-61
2022/11/26 11:00:51;;;;;;;1.10;1.10;;;;;;;;;;1842861;77;26457;-62
2022/11/26 11:03:23;;;;;;;1.20;1.20;;;;;;;;;;1842224;77;26775;-60
2022/11/26 11:05:51;;;;;;;0.85;0.85;;;;;;;;;;1830076;77;26323;-60
2022/11/26 11:08:31;;;;;;;1.05;1.05;;;;;;;;;;1848049;77;26809;-61
2022/11/26 11:11:00;;;;;;;1.00;1.00;;;;;;;;;;1838366;77;26274;-61
2022/11/26 11:13:38;;;;;;;1.10;1.10;;;;;;;;;;1841991;77;26847;-60
2022/11/26 11:16:05;;;;;;;0.90;0.90;;;;;;;;;;1837877;77;26260;-61
2022/11/26 11:18:34;;;;;;;0.80;0.80;;;;;;;;;;1844456;76;26752;-60
2022/11/26 11:21:02;;;;;;;1.50;0.80;;;;;;;;;;1840465;77;27323;-63
2022/11/26 11:23:34;;;;;;;1.15;0.90;;;;;;;;;;1828223;77;26790;-60
2022/11/26 11:26:06;;;;;;;1.05;1.05;;;;;;;;;;1824643;77;26298;-62
2022/11/26 11:28:35;;;;;;;1.00;1.00;;;;;;;;;;1826733;77;26296;-61
2022/11/26 11:31:10;;;;;;;0.98;0.98;;;;;;;;;;1839390;77;26860;-60
2022/11/26 11:33:38;;;;;;;1.37;1.10;;;;;;;;;;1844990;76;26264;-60
2022/11/26 11:36:06;;;;;;;0.88;0.88;;;;;;;;;;1824232;77;26291;-63
2022/11/26 11:38:35;;;;;;;7.08;1.45;;;;;;;;;;1847309;77;26358;-61
2022/11/26 11:41:04;;;;;;;1.27;1.15;;;;;;;;;;1847350;77;26346;-62
2022/11/26 11:43:33;;;;;;;1.82;1.00;;;;;;;;;;1839114;77;26277;-61
2022/11/26 11:46:05;;;;;;;0.72;0.72;;;;;;;;;;1837568;77;26261;-61
2022/11/26 11:48:36;;;;;;;0.98;0.90;;;;;;;;;;1839382;77;26303;-61
2022/11/26 11:51:06;;;;;;;1.45;0.80;;;;;;;;;;1834595;77;26684;-60
2022/11/26 11:53:35;;;;;;;8.90;1.35;;;;;;;;;;1812847;77;26385;-61
2022/11/26 11:56:13;;;;;;;2.98;1.00;;;;;;;;;;1839811;77;26365;-61
2022/11/26 11:58:44;;;;;;;1.10;1.00;;;;;;;;;;1841330;77;26566;-62
2022/11/26 12:01:16;;;;;;;1.22;1.00;;;;;;;;;;1810655;72;26365;-60
2022/11/26 12:03:45;;;;;;;2.00;0.95;;;;;;;;;;1809182;77;26842;-61
2022/11/26 12:06:19;;;;;;;0.90;0.90;;;;;;;;;;1810087;78;27372;-60
2022/11/26 12:08:48;;;;;;;0.90;0.90;;;;;;;;;;1806161;78;27188;-62
2022/11/26 12:11:17;;;;;;;1.07;1.00;;;;;;;;;;1794810;78;26668;-60
2022/11/26 12:13:52;;;;;;;0.85;0.85;;;;;;;;;;1818446;77;26346;-62
2022/11/26 12:16:21;;;;;;;0.88;0.88;;;;;;;;;;1807570;78;26311;-62
2022/11/26 12:18:52;;;;;;;1.67;0.98;;;;;;;;;;1798470;78;27248;-62
2022/11/26 12:21:21;;;;;;;1.12;0.90;;;;;;;;;;1817428;77;26452;-62
2022/11/26 12:23:59;;;;;;;0.90;0.90;;;;;;;;;;1815856;78;26314;-63
2022/11/26 12:26:28;;;;;;;2.35;0.85;;;;;;;;;;1817965;78;26785;-63
2022/11/26 12:28:59;;;;;;;0.90;0.90;;;;;;;;;;1808002;78;26935;-62
2022/11/26 12:31:31;;;;;;;0.88;0.88;;;;;;;;;;1818070;77;26340;-62
2022/11/26 12:34:08;;;;;;;1.85;0.95;;;;;;;;;;1811211;78;26288;-64
2022/11/26 12:36:40;;;;;;;2.22;0.80;;;;;;;;;;1812931;77;26303;-62
2022/11/26 12:39:18;;;;;;;0.82;0.80;;;;;;;;;;1817690;78;26272;-60
2022/11/26 12:41:47;;;;;;;0.98;0.90;;;;;;;;;;1812431;77;26348;-61
2022/11/26 12:44:22;;;;;;;0.82;0.82;;;;;;;;;;1812067;78;26272;-62
2022/11/26 12:46:54;;;;;;;0.80;0.80;;;;;;;;;;1809805;78;26312;-61
2022/11/26 12:49:26;;;;;;;0.88;0.88;;;;;;;;;;1822553;78;26891;-62
2022/11/26 12:51:54;;;;;;;1.27;0.68;;;;;;;;;;1812760;78;26267;-61
2022/11/26 12:54:23;;;;;;;0.90;0.90;;;;;;;;;;1810594;78;26351;-61
2022/11/26 12:56:58;;;;;;;0.80;0.80;;;;;;;;;;1810319;78;26874;-61
2022/11/26 12:59:30;;;;;;;1.00;0.90;;;;;;;;;;1811389;78;26369;-61
2022/11/26 13:01:57;;;;;;;2.70;0.80;;;;;;;;;;1813053;77;26368;-61
2022/11/26 13:04:26;;;;;;;0.90;0.90;;;;;;;;;;1818087;77;26229;-61
2022/11/26 13:07:12;;;;;;;0.72;0.72;;;;;;;;;;1805649;77;26272;-60
2022/11/26 13:09:46;;;;;;;1.05;1.00;;;;;;;;;;1804544;78;26253;-61
2022/11/26 13:12:15;;;;;;;0.80;0.80;;;;;;;;;;1787611;78;26742;-62
2022/11/26 13:14:56;;;;;;;0.80;0.80;;;;;;;;;;1822311;77;26542;-61
2022/11/26 13:17:25;;;;;;;1.15;0.80;;;;;;;;;;1822111;78;26295;-62
2022/11/26 13:19:56;;;;;;;1.12;1.00;;;;;;;;;;1812461;77;26357;-61
2022/11/26 13:22:34;;;;;;;0.80;0.80;;;;;;;;;;1800071;78;26213;-62
2022/11/26 13:25:19;;;;;;;1.15;0.90;;;;;;;;;;1816392;78;26784;-61
2022/11/26 13:27:48;;;;;;;0.80;0.80;;;;;;;;;;1822079;78;26261;-61
2022/11/26 13:30:22;;;;;;;0.80;0.80;;;;;;;;;;1813529;78;26294;-62
2022/11/26 13:32:51;;;;;;;0.80;0.80;;;;;;;;;;1814781;78;26284;-61
2022/11/26 13:35:20;;;;;;;0.90;0.90;;;;;;;;;;1798095;78;26423;-62
2022/11/26 13:37:49;;;;;;;0.68;0.68;;;;;;;;;;1813721;77;26330;-62
2022/11/26 13:40:24;;;;;;;0.60;0.60;;;;;;;;;;1811433;78;26293;-62
2022/11/26 13:42:55;;;;;;;0.80;0.80;;;;;;;;;;1819768;78;26345;-62
2022/11/26 13:45:24;;;;;;;0.62;0.62;;;;;;;;;;1810530;77;26349;-62
2022/11/26 13:47:53;;;;;;;0.80;0.80;;;;;;;;;;1812679;78;26358;-62
2022/11/26 13:50:22;;;;;;;0.85;0.85;;;;;;;;;;1814434;78;25940;-60
2022/11/26 13:52:53;;;;;;;0.70;0.70;;;;;;;;;;1813207;78;25764;-61
2022/11/26 13:55:22;;;;;;;0.60;0.60;;;;;;;;;;1812599;78;26752;-61
2022/11/26 13:57:51;;;;;;;0.90;0.90;;;;;;;;;;1812276;78;26267;-62
2022/11/26 14:00:29;;;;;;;0.80;0.80;;;;;;;;;;1814802;78;26233;-59
2022/11/26 14:02:57;;;;;;;0.78;0.78;;;;;;;;;;1803947;78;26331;-63
2022/11/26 14:05:26;;;;;;;0.70;0.70;;;;;;;;;;1812792;78;26272;-61
2022/11/26 14:07:55;;;;;;;0.72;0.72;;;;;;;;;;1809508;78;26370;-61
2022/11/26 14:10:38;;;;;;;0.70;0.70;;;;;;;;;;1807027;78;26236;-62
2022/11/26 14:13:09;;;;;;;0.75;0.75;;;;;;;;;;1818582;78;26338;-60
2022/11/26 14:15:44;;;;;;;0.80;0.80;;;;;;;;;;1816408;77;26263;-61
2022/11/26 14:18:12;;;;;;;0.93;0.93;;;;;;;;;;1815542;78;26839;-61
2022/11/26 14:21:00;;;;;;;0.70;0.70;;;;;;;;;;1815903;78;26796;-62
2022/11/26 14:23:46;;;;;;;0.80;0.80;;;;;;;;;;1824831;78;26353;-62
2022/11/26 14:26:36;;;;;;;0.72;0.72;;;;;;;;;;1812959;77;26769;-61
2022/11/26 14:29:10;;;;;;;0.70;0.70;;;;;;;;;;1797246;79;26336;-62
2022/11/26 14:31:39;;;;;;;0.85;0.85;;;;;;;;;;1820273;77;26283;-62
2022/11/26 14:34:07;;;;;;;0.80;0.80;;;;;;;;;;1819783;78;26371;-60
2022/11/26 14:36:35;;;;;;;0.68;0.68;;;;;;;;;;1795173;78;26276;-60
2022/11/26 14:39:06;;;;;;;0.80;0.80;;;;;;;;;;1819619;77;26729;-61
2022/11/26 14:41:35;;;;;;;0.80;0.80;;;;;;;;;;1824212;77;26796;-61
2022/11/26 14:44:06;;;;;;;0.78;0.78;;;;;;;;;;1817440;78;26331;-62
2022/11/26 14:46:34;;;;;;;0.90;0.90;;;;;;;;;;1822949;78;26223;-62
2022/11/26 14:49:02;;;;;;;0.90;0.90;;;;;;;;;;1809809;78;26376;-62
2022/11/26 14:51:31;;;;;;;0.80;0.80;;;;;;;;;;1820158;78;26261;-62
2022/11/26 14:53:59;;;;;;;0.80;0.80;;;;;;;;;;1817955;78;27373;-61
2022/11/26 14:56:28;;;;;;;0.80;0.80;;;;;;;;;;1825282;78;26793;-62
2022/11/26 14:58:57;;;;;;;0.80;0.80;;;;;;;;;;1823453;77;26361;-62
2022/11/26 15:01:26;;;;;;;0.80;0.80;;;;;;;;;;1821024;77;26327;-62
2022/11/26 15:04:17;;;;;;;0.85;0.85;;;;;;;;;;1823661;77;26894;-60